createdAt,value
2023-05-13T00:02:18.754Z,12.00
2023-05-13T00:04:46.976Z,11.00
2023-05-13T00:07:15.053Z,13.50
2023-05-13T00:09:43.268Z,9.25
2023-05-13T00:12:12.794Z,11.00
2023-05-13T00:14:40.925Z,12.00
2023-05-13T00:17:08.956Z,11.25
2023-05-13T00:19:36.984Z,11.00
2023-05-13T00:22:05.218Z,10.50
2023-05-13T00:24:33.284Z,5.75
2023-05-13T00:27:01.440Z,14.75
2023-05-13T00:29:31.634Z,11.75
2023-05-13T00:31:59.863Z,11.00
2023-05-13T00:34:27.928Z,13.50
2023-05-13T00:36:55.976Z,12.50
2023-05-13T00:39:24.817Z,15.00
2023-05-13T00:41:52.852Z,10.00
2023-05-13T00:44:21.002Z,11.00
2023-05-13T00:46:50.729Z,11.75
2023-05-13T00:49:18.841Z,11.00
2023-05-13T00:51:47.102Z,12.50
2023-05-13T00:54:15.306Z,10.50
2023-05-13T00:56:43.418Z,11.00
2023-05-13T00:59:11.477Z,11.00
2023-05-13T01:01:44.512Z,10.50
2023-05-13T01:04:16.685Z,10.75
2023-05-13T01:06:52.989Z,11.50
2023-05-13T01:09:24.934Z,10.75
2023-05-13T01:11:55.216Z,14.50
2023-05-13T01:14:24.361Z,12.25
2023-05-13T01:16:57.036Z,10.50
2023-05-13T01:19:43.230Z,10.00
2023-05-13T01:22:12.756Z,11.50
2023-05-13T01:24:41.058Z,10.75
2023-05-13T01:27:09.356Z,11.00
2023-05-13T01:29:37.877Z,10.75
2023-05-13T01:32:07.239Z,7.75
2023-05-13T01:34:36.179Z,12.25
2023-05-13T01:37:04.732Z,7.50
2023-05-13T01:39:34.332Z,9.50
2023-05-13T01:42:06.686Z,14.25
2023-05-13T01:44:34.756Z,10.00
2023-05-13T01:47:02.803Z,11.25
2023-05-13T01:49:31.363Z,13.50
2023-05-13T01:51:59.496Z,12.25
2023-05-13T01:54:29.676Z,11.00
2023-05-13T01:57:05.826Z,12.00
2023-05-13T01:59:34.271Z,12.00
2023-05-13T02:02:02.529Z,7.00
2023-05-13T02:04:30.832Z,13.00
2023-05-13T02:06:59.996Z,11.25
2023-05-13T02:09:31.126Z,12.00
2023-05-13T02:12:00.450Z,11.75
2023-05-13T02:14:31.235Z,10.75
2023-05-13T02:16:59.362Z,7.00
2023-05-13T02:19:28.175Z,12.25
2023-05-13T02:21:56.392Z,12.00
2023-05-13T02:24:24.702Z,11.00
2023-05-13T02:26:53.109Z,11.00
2023-05-13T02:29:21.302Z,11.25
2023-05-13T02:31:51.025Z,11.75
2023-05-13T02:34:19.125Z,11.00
2023-05-13T02:36:48.768Z,11.00
2023-05-13T02:39:16.864Z,13.00
2023-05-13T02:41:45.785Z,10.50
2023-05-13T02:44:14.516Z,13.25
2023-05-13T02:46:44.294Z,10.00
2023-05-13T02:49:14.204Z,8.00
2023-05-13T02:51:42.370Z,12.00
2023-05-13T02:54:10.581Z,11.00
2023-05-13T02:56:38.636Z,8.75
2023-05-13T02:59:06.892Z,14.00
2023-05-13T03:01:35.150Z,14.00
2023-05-13T03:04:03.231Z,11.75
2023-05-13T03:06:32.934Z,12.75
2023-05-13T03:09:03.409Z,12.00
2023-05-13T03:11:31.506Z,9.75
2023-05-13T03:14:00.326Z,8.75
2023-05-13T03:16:28.607Z,9.50
2023-05-13T03:18:56.727Z,13.00
2023-05-13T03:21:24.831Z,9.25
2023-05-13T03:23:54.815Z,8.75
2023-05-13T03:26:23.009Z,11.00
2023-05-13T03:28:51.415Z,9.00
2023-05-13T03:31:19.705Z,10.00
2023-05-13T03:33:48.032Z,8.00
2023-05-13T03:36:16.391Z,9.75
2023-05-13T03:38:44.549Z,8.00
2023-05-13T03:41:17.559Z,6.50
2023-05-13T03:43:48.043Z,7.50
2023-05-13T03:46:16.833Z,8.00
2023-05-13T03:48:44.910Z,8.00
2023-05-13T03:51:13.038Z,7.00
2023-05-13T03:53:41.272Z,7.50
2023-05-13T03:56:09.426Z,8.00
2023-05-13T03:58:38.994Z,8.75
2023-05-13T04:01:07.949Z,6.00
2023-05-13T04:03:36.362Z,6.75
2023-05-13T04:06:04.467Z,8.00
2023-05-13T04:08:35.690Z,7.75
2023-05-13T04:11:03.904Z,7.50
2023-05-13T04:13:32.167Z,11.25
2023-05-13T04:16:01.726Z,8.75
2023-05-13T04:18:30.551Z,7.75
2023-05-13T04:20:58.646Z,9.75
2023-05-13T04:23:27.108Z,8.25
2023-05-13T04:25:55.177Z,5.50
2023-05-13T04:28:23.241Z,7.50
2023-05-13T04:30:52.203Z,8.75
2023-05-13T04:33:21.941Z,10.00
2023-05-13T04:35:50.930Z,8.25
2023-05-13T04:38:19.083Z,9.75
2023-05-13T04:40:47.995Z,8.00
2023-05-13T04:43:22.132Z,8.00
2023-05-13T04:45:54.840Z,4.75
2023-05-13T04:48:28.051Z,9.25
2023-05-13T04:50:58.678Z,8.25
2023-05-13T04:53:27.728Z,4.75
2023-05-13T04:56:01.127Z,9.00
2023-05-13T04:58:31.053Z,6.00
2023-05-13T05:00:59.155Z,7.00
2023-05-13T05:03:28.634Z,8.00
2023-05-13T05:05:57.143Z,7.00
2023-05-13T05:08:25.977Z,5.25
2023-05-13T05:10:54.082Z,7.50
2023-05-13T05:13:22.413Z,6.50
2023-05-13T05:15:51.026Z,8.50
2023-05-13T05:18:19.469Z,6.25
2023-05-13T05:20:51.879Z,6.00
2023-05-13T05:23:22.365Z,6.00
2023-05-13T05:26:00.847Z,7.50
2023-05-13T05:28:40.382Z,5.00
2023-05-13T05:31:09.895Z,6.25
2023-05-13T05:33:38.359Z,5.00
2023-05-13T05:36:09.767Z,4.75
2023-05-13T05:38:38.041Z,5.00
2023-05-13T05:41:07.007Z,5.50
2023-05-13T05:43:35.112Z,5.50
2023-05-13T05:46:05.238Z,3.00
2023-05-13T05:48:34.798Z,4.00
2023-05-13T05:51:04.249Z,2.50
2023-05-13T05:53:37.719Z,4.75
2023-05-13T05:56:07.472Z,5.00
2023-05-13T05:58:36.127Z,5.00
2023-05-13T06:01:04.369Z,3.75
2023-05-13T06:03:32.475Z,5.50
2023-05-13T06:06:02.740Z,5.75
2023-05-13T06:08:31.368Z,5.00
2023-05-13T06:11:01.250Z,6.75
2023-05-13T06:13:29.525Z,4.00
2023-05-13T06:15:57.669Z,6.75
2023-05-13T06:18:25.846Z,5.75
2023-05-13T06:20:55.407Z,5.25
2023-05-13T06:23:23.553Z,4.75
2023-05-13T06:25:53.014Z,3.00
2023-05-13T06:28:23.530Z,1.00
2023-05-13T06:30:52.195Z,4.50
2023-05-13T06:33:20.687Z,2.75
2023-05-13T06:35:49.961Z,5.00
2023-05-13T06:38:20.239Z,4.75
2023-05-13T06:40:49.090Z,6.00
2023-05-13T06:43:18.467Z,4.25
2023-05-13T06:45:58.427Z,3.50
2023-05-13T06:48:28.251Z,3.00
2023-05-13T06:50:56.565Z,4.00
2023-05-13T06:53:24.660Z,1.50
2023-05-13T06:55:52.833Z,5.00
2023-05-13T06:58:21.315Z,4.50
2023-05-13T07:00:49.536Z,3.50
2023-05-13T07:03:19.141Z,2.50
2023-05-13T07:05:47.894Z,4.50
2023-05-13T07:08:18.237Z,5.00
2023-05-13T07:10:46.371Z,4.00
2023-05-13T07:13:14.439Z,5.00
2023-05-13T07:15:43.242Z,5.25
2023-05-13T07:18:12.000Z,2.25
2023-05-13T07:20:41.521Z,6.00
2023-05-13T07:23:09.782Z,4.50
2023-05-13T07:25:37.863Z,5.67
2023-05-13T07:28:07.084Z,4.75
2023-05-13T07:30:35.321Z,4.50
2023-05-13T07:33:03.697Z,3.00
2023-05-13T07:35:32.497Z,3.00
2023-05-13T07:38:01.946Z,4.50
2023-05-13T07:40:30.085Z,5.75
2023-05-13T07:42:58.212Z,4.75
2023-05-13T07:45:26.402Z,5.00
2023-05-13T07:47:55.143Z,4.00
2023-05-13T07:50:23.492Z,6.50
2023-05-13T07:52:52.050Z,5.75
2023-05-13T07:55:21.995Z,6.00
2023-05-13T07:57:51.145Z,5.50
2023-05-13T08:00:19.444Z,5.00
2023-05-13T08:02:48.172Z,1.00
2023-05-13T08:05:16.316Z,6.25
2023-05-13T08:07:44.394Z,5.75
2023-05-13T08:10:12.523Z,4.25
2023-05-13T08:12:42.305Z,5.75
2023-05-13T08:15:12.159Z,5.75
2023-05-13T08:17:40.234Z,4.00
2023-05-13T08:20:09.034Z,3.00
2023-05-13T08:22:37.243Z,3.00
2023-05-13T08:25:05.681Z,4.00
2023-05-13T08:27:33.856Z,5.00
2023-05-13T08:30:03.401Z,4.25
2023-05-13T08:32:43.573Z,3.50
2023-05-13T08:35:11.718Z,6.50
2023-05-13T08:37:40.178Z,2.75
2023-05-13T08:40:08.881Z,5.50
2023-05-13T08:42:39.196Z,1.00
2023-05-13T08:45:10.034Z,2.00
2023-05-13T08:47:45.239Z,4.00
2023-05-13T08:50:13.948Z,4.25
2023-05-13T08:52:42.494Z,3.00
2023-05-13T08:55:11.117Z,4.00
2023-05-13T08:57:39.605Z,2.50
2023-05-13T09:00:10.772Z,6.00
2023-05-13T09:02:39.096Z,4.25
2023-05-13T09:05:08.037Z,3.00
2023-05-13T09:07:36.925Z,4.75
2023-05-13T09:10:05.219Z,5.00
2023-05-13T09:12:47.250Z,4.00
2023-05-13T09:15:17.531Z,5.00
2023-05-13T09:17:46.352Z,3.00
2023-05-13T09:20:15.550Z,3.50
2023-05-13T09:22:46.704Z,6.50
2023-05-13T09:25:15.214Z,4.50
2023-05-13T09:27:43.833Z,1.00
2023-05-13T09:30:12.685Z,4.75
2023-05-13T09:32:42.885Z,2.25
2023-05-13T09:35:13.871Z,5.75
2023-05-13T09:37:41.966Z,5.00
2023-05-13T09:40:12.823Z,4.00
2023-05-13T09:42:44.573Z,5.00
2023-05-13T09:45:13.107Z,5.75
2023-05-13T09:47:42.807Z,6.00
2023-05-13T09:50:11.663Z,6.00
2023-05-13T09:52:40.035Z,7.00
2023-05-13T09:55:10.536Z,6.50
2023-05-13T09:57:39.928Z,5.75
2023-05-13T10:00:15.012Z,5.50
2023-05-13T10:02:51.083Z,7.50
2023-05-13T10:05:19.706Z,2.75
2023-05-13T10:07:47.997Z,5.75
2023-05-13T10:10:16.380Z,5.75
2023-05-13T10:12:44.603Z,7.00
2023-05-13T10:15:13.047Z,6.00
2023-05-13T10:17:41.209Z,4.00
2023-05-13T10:20:10.919Z,5.00
2023-05-13T10:22:39.295Z,6.25
2023-05-13T10:25:07.793Z,7.25
2023-05-13T10:27:35.989Z,5.00
2023-05-13T10:30:09.750Z,5.50
2023-05-13T10:32:39.245Z,6.25
2023-05-13T10:35:10.040Z,7.00
2023-05-13T10:38:01.055Z,5.25
2023-05-13T10:40:47.534Z,4.00
2023-05-13T10:43:18.426Z,6.25
2023-05-13T10:45:47.403Z,7.75
2023-05-13T10:48:16.845Z,4.50
2023-05-13T10:50:55.265Z,6.00
2023-05-13T10:53:26.367Z,4.00
2023-05-13T10:55:55.723Z,4.00
2023-05-13T10:58:29.380Z,6.00
2023-05-13T11:01:13.781Z,2.50
2023-05-13T11:03:42.249Z,4.25
2023-05-13T11:06:17.274Z,4.00
2023-05-13T11:08:47.306Z,4.00
2023-05-13T11:11:19.560Z,1.00
2023-05-13T11:13:47.869Z,6.00
2023-05-13T11:16:16.207Z,6.00
2023-05-13T11:18:44.465Z,4.00
2023-05-13T11:21:12.765Z,5.00
2023-05-13T11:23:59.017Z,6.25
2023-05-13T11:26:27.094Z,5.00
2023-05-13T11:28:55.986Z,5.25
2023-05-13T11:31:24.414Z,3.25
2023-05-13T11:34:08.020Z,6.25
2023-05-13T11:36:36.229Z,5.00
2023-05-13T11:39:12.652Z,4.00
2023-05-13T11:41:45.095Z,5.00
2023-05-13T11:44:13.856Z,5.00
2023-05-13T11:46:51.867Z,3.50
2023-05-13T11:49:36.020Z,4.00
2023-05-13T11:52:04.915Z,4.00
2023-05-13T11:54:34.721Z,4.75
2023-05-13T11:57:02.817Z,3.00
2023-05-13T11:59:38.665Z,3.50
2023-05-13T12:02:16.247Z,4.50
2023-05-13T12:04:45.371Z,4.25
2023-05-13T12:07:13.482Z,5.25
2023-05-13T12:09:45.595Z,5.00
2023-05-13T12:12:13.966Z,4.75
2023-05-13T12:14:42.489Z,3.75
2023-05-13T12:17:10.683Z,3.50
2023-05-13T12:19:38.967Z,0.00
2023-05-13T12:22:07.118Z,3.50
2023-05-13T12:24:43.429Z,3.80
2023-05-13T12:27:12.895Z,2.75
2023-05-13T12:29:41.773Z,1.25
2023-05-13T12:32:11.997Z,5.75
2023-05-13T12:34:40.306Z,3.75
2023-05-13T12:37:12.610Z,4.00
2023-05-13T12:39:41.623Z,5.00
2023-05-13T12:42:16.872Z,5.25
2023-05-13T12:44:45.719Z,4.25
2023-05-13T12:47:15.927Z,4.00
2023-05-13T12:49:53.455Z,5.00
2023-05-13T12:52:21.780Z,4.00
2023-05-13T12:54:49.839Z,3.50
2023-05-13T12:57:20.668Z,5.50
2023-05-13T12:59:48.736Z,4.75
2023-05-13T13:02:16.829Z,5.00
2023-05-13T13:04:45.069Z,5.00
2023-05-13T13:07:14.782Z,5.50
2023-05-13T13:09:42.931Z,5.00
2023-05-13T13:12:11.095Z,5.00
2023-05-13T13:14:40.608Z,3.50
2023-05-13T13:17:08.772Z,5.50
2023-05-13T13:19:36.947Z,4.50
2023-05-13T13:22:05.284Z,5.00
2023-05-13T13:24:33.387Z,2.00
2023-05-13T13:27:01.456Z,3.50
2023-05-13T13:29:29.603Z,4.75
2023-05-13T13:31:59.201Z,3.50
2023-05-13T13:34:27.346Z,4.50
2023-05-13T13:36:55.548Z,5.50
2023-05-13T13:39:23.789Z,4.00
2023-05-13T13:41:51.989Z,4.50
2023-05-13T13:44:20.143Z,5.00
2023-05-13T13:46:48.209Z,5.50
2023-05-13T13:49:23.580Z,4.75
2023-05-13T13:51:52.486Z,4.75
2023-05-13T13:54:20.915Z,4.75
2023-05-13T13:56:49.526Z,4.00
2023-05-13T13:59:19.370Z,1.50
2023-05-13T14:01:47.778Z,2.25
2023-05-13T14:04:19.958Z,4.25
2023-05-13T14:06:48.305Z,4.50
2023-05-13T14:09:16.624Z,5.75
2023-05-13T14:11:44.853Z,5.00
2023-05-13T14:14:12.928Z,4.50
2023-05-13T14:16:41.311Z,5.00
2023-05-13T14:19:09.498Z,4.50
2023-05-13T14:21:43.146Z,6.00
2023-05-13T14:24:12.100Z,3.25
2023-05-13T14:26:40.296Z,4.00
2023-05-13T14:29:08.470Z,1.75
2023-05-13T14:31:36.918Z,5.00
2023-05-13T14:34:08.065Z,4.00
2023-05-13T14:36:37.013Z,4.00
2023-05-13T14:39:09.218Z,3.75
2023-05-13T14:41:37.440Z,5.00
2023-05-13T14:44:05.636Z,5.00
2023-05-13T14:46:35.609Z,4.00
2023-05-13T14:49:03.707Z,5.75
2023-05-13T14:51:31.841Z,4.25
2023-05-13T14:53:59.941Z,2.50
2023-05-13T14:56:29.690Z,4.75
2023-05-13T14:58:58.066Z,4.00
2023-05-13T15:01:26.174Z,5.00
2023-05-13T15:03:54.577Z,6.00
2023-05-13T15:06:22.914Z,5.00
2023-05-13T15:08:51.054Z,5.00
2023-05-13T15:11:19.179Z,6.25
2023-05-13T15:13:48.754Z,6.00
2023-05-13T15:16:16.895Z,5.25
2023-05-13T15:18:45.187Z,4.00
2023-05-13T15:21:13.391Z,9.25
2023-05-13T15:23:41.492Z,6.00
2023-05-13T15:26:09.564Z,5.00
2023-05-13T15:28:37.999Z,4.00
2023-05-13T15:31:07.925Z,5.00
2023-05-13T15:33:36.067Z,5.00
2023-05-13T15:36:05.854Z,5.40
2023-05-13T15:38:33.974Z,5.00
2023-05-13T15:41:04.044Z,6.00
2023-05-13T15:43:32.384Z,3.50
2023-05-13T15:46:00.566Z,4.33
2023-05-13T15:48:30.317Z,4.50
2023-05-13T15:50:58.529Z,5.00
2023-05-13T15:53:26.768Z,4.25
2023-05-13T15:55:54.904Z,5.00
2023-05-13T15:58:22.996Z,3.00
2023-05-13T16:00:51.260Z,5.00
2023-05-13T16:03:19.519Z,4.50
2023-05-13T16:05:49.116Z,4.00
2023-05-13T16:08:17.305Z,5.00
2023-05-13T16:10:45.459Z,2.00
2023-05-13T16:13:13.583Z,3.75
2023-05-13T16:15:41.782Z,5.00
2023-05-13T16:18:09.957Z,4.00
2023-05-13T16:20:38.824Z,4.00
2023-05-13T16:23:08.654Z,2.75
2023-05-13T16:25:36.942Z,4.50
2023-05-13T16:28:05.347Z,5.75
2023-05-13T16:30:33.516Z,5.25
2023-05-13T16:33:01.682Z,5.00
2023-05-13T16:35:29.777Z,4.50
2023-05-13T16:37:57.852Z,5.75
2023-05-13T16:40:27.562Z,5.00
2023-05-13T16:42:58.816Z,4.25
2023-05-13T16:45:28.216Z,6.50
2023-05-13T16:47:56.608Z,7.25
2023-05-13T16:50:25.182Z,8.00
2023-05-13T16:52:54.764Z,0.00
2023-05-13T16:55:23.001Z,4.50
2023-05-13T16:57:53.597Z,6.00
2023-05-13T17:00:22.072Z,7.75
2023-05-13T17:02:50.407Z,7.00
2023-05-13T17:05:19.494Z,5.00
2023-05-13T17:07:47.790Z,7.00
2023-05-13T17:10:16.218Z,7.00
2023-05-13T17:12:44.563Z,4.00
2023-05-13T17:15:14.313Z,3.00
2023-05-13T17:17:42.511Z,8.00
2023-05-13T17:20:11.290Z,7.50
2023-05-13T17:22:39.672Z,9.00
2023-05-13T17:25:08.481Z,8.00
2023-05-13T17:27:36.540Z,6.75
2023-05-13T17:30:04.783Z,7.25
2023-05-13T17:32:35.042Z,6.00
2023-05-13T17:35:03.231Z,7.75
2023-05-13T17:37:31.618Z,7.00
2023-05-13T17:40:01.717Z,8.50
2023-05-13T17:42:33.168Z,9.75
2023-05-13T17:45:02.374Z,7.75
2023-05-13T17:47:32.721Z,8.00
2023-05-13T17:50:02.388Z,9.25
2023-05-13T17:52:31.840Z,7.75
2023-05-13T17:55:02.461Z,7.25
2023-05-13T17:57:32.144Z,8.00
2023-05-13T18:00:00.276Z,8.50
2023-05-13T18:02:28.502Z,7.50
2023-05-13T18:04:56.655Z,8.25
2023-05-13T18:07:26.464Z,9.00
2023-05-13T18:09:54.709Z,6.75
2023-05-13T18:12:22.828Z,7.50
2023-05-13T18:14:50.892Z,9.00
2023-05-13T18:17:18.977Z,9.50
2023-05-13T18:19:47.217Z,10.00
2023-05-13T18:22:15.448Z,11.00
2023-05-13T18:24:46.346Z,9.50
2023-05-13T18:27:15.159Z,9.75
2023-05-13T18:29:43.229Z,11.00
2023-05-13T18:32:11.373Z,10.50
2023-05-13T18:34:40.859Z,10.25
2023-05-13T18:37:08.907Z,9.00
2023-05-13T18:39:37.162Z,9.50
2023-05-13T18:42:07.546Z,9.00
2023-05-13T18:44:35.986Z,12.00
2023-05-13T18:47:04.752Z,9.00
2023-05-13T18:49:33.070Z,11.25
2023-05-13T18:52:01.403Z,10.25
2023-05-13T18:54:29.500Z,8.75
2023-05-13T18:56:57.565Z,8.50
2023-05-13T18:59:27.223Z,9.50
2023-05-13T19:01:55.652Z,5.75
2023-05-13T19:04:23.967Z,11.25
2023-05-13T19:06:52.103Z,7.50
2023-05-13T19:09:21.673Z,11.50
2023-05-13T19:11:49.929Z,10.75
2023-05-13T19:14:17.978Z,10.75
2023-05-13T19:16:48.026Z,9.00
2023-05-13T19:19:16.192Z,7.50
2023-05-13T19:21:44.459Z,10.00
2023-05-13T19:24:12.543Z,11.00
2023-05-13T19:26:40.882Z,9.00
2023-05-13T19:29:08.990Z,3.00
2023-05-13T19:31:37.263Z,6.50
2023-05-13T19:34:07.858Z,7.25
2023-05-13T19:36:36.076Z,6.00
2023-05-13T19:39:04.203Z,8.00
2023-05-13T19:41:34.664Z,5.00
2023-05-13T19:44:02.769Z,6.00
2023-05-13T19:46:31.160Z,7.00
2023-05-13T19:48:59.288Z,4.50
2023-05-13T19:51:28.901Z,6.25
2023-05-13T19:53:57.186Z,5.00
2023-05-13T19:56:26.013Z,8.25
2023-05-13T19:58:54.115Z,8.25
2023-05-13T20:01:24.312Z,7.00
2023-05-13T20:03:55.411Z,8.75
2023-05-13T20:06:23.655Z,7.50
2023-05-13T20:08:53.305Z,5.00
2023-05-13T20:11:21.565Z,7.25
2023-05-13T20:13:49.644Z,8.00
2023-05-13T20:16:22.183Z,7.50
2023-05-13T20:18:50.466Z,7.00
2023-05-13T20:21:18.747Z,4.00
2023-05-13T20:23:46.813Z,7.50
2023-05-13T20:26:18.076Z,3.00
2023-05-13T20:28:47.921Z,3.50
2023-05-13T20:31:16.537Z,4.00
2023-05-13T20:33:44.661Z,7.25
2023-05-13T20:36:12.794Z,7.00
2023-05-13T20:38:40.913Z,7.25
2023-05-13T20:41:09.413Z,7.00
2023-05-13T20:43:38.977Z,6.50
2023-05-13T20:46:08.114Z,5.00
2023-05-13T20:48:36.413Z,7.00
2023-05-13T20:51:05.871Z,6.00
2023-05-13T20:53:34.108Z,8.00
2023-05-13T20:56:02.474Z,4.25
2023-05-13T20:58:30.672Z,8.75
2023-05-13T21:01:00.231Z,4.00
2023-05-13T21:03:28.494Z,7.75
2023-05-13T21:05:57.324Z,6.00
2023-05-13T21:08:25.562Z,5.50
2023-05-13T21:10:56.344Z,5.00
2023-05-13T21:13:26.078Z,6.00
2023-05-13T21:15:54.647Z,4.00
2023-05-13T21:18:24.670Z,3.25
2023-05-13T21:20:53.020Z,6.00
2023-05-13T21:23:21.098Z,5.00
2023-05-13T21:25:49.177Z,4.00
2023-05-13T21:28:17.996Z,3.25
2023-05-13T21:30:46.217Z,6.00
2023-05-13T21:33:14.523Z,5.00
2023-05-13T21:35:44.012Z,7.00
2023-05-13T21:38:12.766Z,6.50
2023-05-13T21:40:41.155Z,6.00
2023-05-13T21:43:09.247Z,6.00
2023-05-13T21:45:37.459Z,3.50
2023-05-13T21:48:05.684Z,6.25
2023-05-13T21:50:33.790Z,6.00
2023-05-13T21:53:03.531Z,4.00
2023-05-13T21:55:35.026Z,4.00
2023-05-13T21:58:03.482Z,4.00
2023-05-13T22:00:31.951Z,3.25
2023-05-13T22:03:01.476Z,5.00
2023-05-13T22:05:29.684Z,6.00
2023-05-13T22:07:57.731Z,5.00
2023-05-13T22:10:27.215Z,4.25
2023-05-13T22:12:55.308Z,4.25
2023-05-13T22:15:23.510Z,5.00
2023-05-13T22:17:52.178Z,4.00
2023-05-13T22:20:20.473Z,4.50
2023-05-13T22:22:48.740Z,4.25
2023-05-13T22:25:16.923Z,4.75
2023-05-13T22:27:47.833Z,1.00
2023-05-13T22:30:16.107Z,1.75
2023-05-13T22:32:44.235Z,1.50
2023-05-13T22:35:12.351Z,4.00
2023-05-13T22:37:40.409Z,1.50
2023-05-13T22:40:09.046Z,3.00
2023-05-13T22:42:37.158Z,5.00
2023-05-13T22:45:07.254Z,4.50
2023-05-13T22:47:36.277Z,3.50
2023-05-13T22:50:04.591Z,4.00
2023-05-13T22:52:32.924Z,3.25
2023-05-13T22:55:01.459Z,4.00
2023-05-13T22:57:30.508Z,3.00
2023-05-13T22:59:58.621Z,5.00
2023-05-13T23:02:28.069Z,3.00
2023-05-13T23:04:56.261Z,2.50
2023-05-13T23:07:24.358Z,4.00
2023-05-13T23:09:52.401Z,3.00
2023-05-13T23:12:20.456Z,3.00
2023-05-13T23:14:48.625Z,2.00
2023-05-13T23:17:16.691Z,3.00
2023-05-13T23:19:46.097Z,3.00
2023-05-13T23:22:14.596Z,2.25
2023-05-13T23:24:42.604Z,3.00
2023-05-13T23:27:11.720Z,4.25
2023-05-13T23:29:39.961Z,2.75
2023-05-13T23:32:08.400Z,3.00
2023-05-13T23:34:36.670Z,0.00
2023-05-13T23:37:06.295Z,4.50
2023-05-13T23:39:34.306Z,2.00
2023-05-13T23:42:02.387Z,2.75
2023-05-13T23:44:30.455Z,2.00
2023-05-13T23:46:58.738Z,5.00
2023-05-13T23:49:26.774Z,5.00
2023-05-13T23:51:54.859Z,5.50
2023-05-13T23:54:24.274Z,2.00
2023-05-13T23:56:52.441Z,5.00
2023-05-13T23:59:20.535Z,3.00
